Time;durP1;ratioP1;P1;durP2;ratioP2;P2;SDS_P1;SDS_P2;PMS_P1;PMS_P2;Temp;Humidity;BMP_temperature;BMP_pressure;BME280_temperature;BME280_humidity;BME280_pressure;Samples;Min_cycle;Max_cycle;Signal;HPM_P1;HPM_P2
2023/06/01 00:00:44;;;;;;;8.63;4.00;;;;;;;19.47;42.82;97574.53;5009970;28;20279;-72
2023/06/01 00:03:09;;;;;;;6.83;3.90;;;;;;;19.44;42.66;97574.94;5009726;28;20204;-71
2023/06/01 00:05:35;;;;;;;4.67;3.57;;;;;;;19.39;43.04;97566.78;5014330;28;20462;-70
2023/06/01 00:08:00;;;;;;;7.13;3.90;;;;;;;19.32;43.29;97565.91;5013202;28;20227;-71
2023/06/01 00:10:26;;;;;;;7.67;4.20;;;;;;;19.28;43.40;97572.66;5016196;28;20188;-71
2023/06/01 00:12:51;;;;;;;6.63;4.00;;;;;;;19.27;43.30;97563.84;5013995;28;20297;-71
2023/06/01 00:15:17;;;;;;;5.70;3.57;;;;;;;19.30;43.33;97559.97;5017299;28;20299;-70
2023/06/01 00:17:42;;;;;;;5.60;4.17;;;;;;;19.24;43.18;97558.13;5024909;28;20678;-71
2023/06/01 00:20:08;;;;;;;6.10;3.97;;;;;;;19.15;43.57;97560.94;5017627;28;20207;-71
2023/06/01 00:22:39;;;;;;;7.80;4.17;;;;;;;19.17;43.58;97571.38;5008940;28;20203;-69
2023/06/01 00:25:08;;;;;;;6.07;4.43;;;;;;;19.12;43.58;97566.69;5015114;28;20184;-72
2023/06/01 00:27:33;;;;;;;4.60;4.07;;;;;;;19.13;43.72;97576.28;5011618;28;20415;-71
2023/06/01 00:29:59;;;;;;;6.50;3.70;;;;;;;19.03;44.06;97576.63;5023116;28;20950;-71
2023/06/01 00:32:24;;;;;;;6.60;4.47;;;;;;;19.09;44.20;97584.84;5018896;28;20531;-72
2023/06/01 00:34:50;;;;;;;6.80;4.53;;;;;;;19.00;44.36;97576.22;5024098;28;20196;-70
2023/06/01 00:37:15;;;;;;;8.60;4.60;;;;;;;18.96;44.00;97569.66;5007723;28;20188;-71
2023/06/01 00:39:40;;;;;;;5.23;3.50;;;;;;;18.83;44.33;97568.53;4988920;28;20203;-71
2023/06/01 00:42:06;;;;;;;5.43;3.40;;;;;;;18.83;44.59;97570.41;5008950;28;20661;-70
2023/06/01 00:44:31;;;;;;;10.80;4.60;;;;;;;18.82;44.47;97569.56;5022807;28;20204;-69
2023/06/01 00:46:59;;;;;;;14.30;4.40;;;;;;;18.76;44.81;97573.00;5014636;28;20836;-71
2023/06/01 00:49:25;;;;;;;6.70;4.00;;;;;;;18.79;44.72;97571.78;5019515;28;20203;-71
2023/06/01 00:51:50;;;;;;;8.90;4.30;;;;;;;18.80;45.00;97568.94;5008054;28;20450;-72
2023/06/01 00:54:16;;;;;;;11.70;4.97;;;;;;;18.75;45.10;97571.38;5006827;28;21047;-71
2023/06/01 00:56:42;;;;;;;6.87;4.00;;;;;;;18.75;45.18;97567.88;5022680;28;20180;-71
2023/06/01 00:59:07;;;;;;;6.03;4.33;;;;;;;18.75;45.00;97570.53;5017423;28;20665;-70
2023/06/01 01:01:33;;;;;;;7.60;4.23;;;;;;;18.68;45.22;97565.19;5008259;28;20223;-70
2023/06/01 01:04:00;;;;;;;5.10;4.27;;;;;;;18.67;45.42;97568.84;5010199;28;20219;-70
2023/06/01 01:06:39;;;;;;;7.10;4.33;;;;;;;18.45;45.72;97563.63;5012206;28;20181;-70
2023/06/01 01:09:11;;;;;;;9.20;4.60;;;;;;;18.40;45.77;97563.38;5007789;28;20806;-70
2023/06/01 01:11:37;;;;;;;5.67;4.00;;;;;;;18.44;45.83;97564.63;5008290;28;20427;-69
2023/06/01 01:14:16;;;;;;;6.30;4.10;;;;;;;18.34;45.60;97558.84;5011276;28;20443;-70
2023/06/01 01:16:46;;;;;;;10.37;4.70;;;;;;;18.36;45.77;97562.16;5010210;28;20466;-71
2023/06/01 01:19:12;;;;;;;6.60;3.53;;;;;;;18.39;45.71;97564.41;5012956;28;20835;-69
2023/06/01 01:21:40;;;;;;;6.43;4.07;;;;;;;18.39;45.79;97573.19;5008440;28;21010;-70
2023/06/01 01:24:48;;;;;;;13.37;4.53;;;;;;;18.34;45.75;97564.16;5017690;28;20435;-70
2023/06/01 01:27:27;;;;;;;7.00;4.20;;;;;;;18.26;45.86;97563.31;5005431;28;20415;-70
2023/06/01 01:29:55;;;;;;;6.33;4.20;;;;;;;18.10;46.21;97558.28;5024794;28;20454;-70
2023/06/01 01:32:22;;;;;;;6.93;4.07;;;;;;;18.15;45.94;97560.34;5016067;28;21150;-70
2023/06/01 01:34:48;;;;;;;9.20;4.63;;;;;;;18.18;46.00;97559.97;5019403;28;20907;-71
2023/06/01 01:37:14;;;;;;;8.10;4.10;;;;;;;18.22;45.93;97556.75;5018414;28;20434;-70
2023/06/01 01:39:39;;;;;;;6.60;3.80;;;;;;;18.16;45.81;97552.19;5027286;28;20812;-71
2023/06/01 01:42:05;;;;;;;8.80;4.20;;;;;;;18.18;46.15;97555.47;5018615;28;20839;-71
2023/06/01 01:44:31;;;;;;;8.47;4.37;;;;;;;18.06;46.04;97559.66;5017870;28;20581;-71
2023/06/01 01:47:01;;;;;;;5.17;4.10;;;;;;;18.08;45.88;97555.00;5015106;28;20418;-70
2023/06/01 01:49:27;;;;;;;6.63;4.03;;;;;;;18.09;45.96;97548.69;5016134;28;20451;-71
2023/06/01 01:52:15;;;;;;;12.20;4.20;;;;;;;18.10;45.73;97552.97;5014057;28;20451;-71
2023/06/01 01:54:45;;;;;;;5.13;3.90;;;;;;;18.03;46.11;97552.09;5019029;28;20467;-71
2023/06/01 01:57:14;;;;;;;6.63;4.10;;;;;;;18.03;46.35;97547.63;5006494;28;21003;-71
2023/06/01 01:59:41;;;;;;;5.60;3.93;;;;;;;17.97;46.27;97548.38;5006818;28;20426;-70
2023/06/01 02:02:07;;;;;;;4.73;3.73;;;;;;;17.95;46.39;97553.03;5006604;28;20443;-71
2023/06/01 02:04:33;;;;;;;7.73;4.17;;;;;;;17.95;46.39;97540.59;5006503;28;20478;-72
2023/06/01 02:06:58;;;;;;;6.93;3.90;;;;;;;17.85;46.62;97540.09;5007794;28;20661;-71
2023/06/01 02:09:23;;;;;;;4.77;3.70;;;;;;;17.85;46.68;97545.41;5015714;28;20180;-70
2023/06/01 02:11:49;;;;;;;7.47;4.43;;;;;;;17.77;46.91;97537.56;5016082;28;20188;-71
2023/06/01 02:14:15;;;;;;;5.90;4.17;;;;;;;17.75;46.65;97534.28;5015284;28;20219;-70
2023/06/01 02:16:40;;;;;;;7.57;4.30;;;;;;;17.70;46.57;97536.69;5012637;28;20180;-70
2023/06/01 02:19:06;;;;;;;5.70;4.07;;;;;;;17.65;46.68;97530.13;5023586;28;20207;-70
2023/06/01 02:21:31;;;;;;;5.80;4.47;;;;;;;17.66;46.84;97536.25;5012718;28;20276;-71
2023/06/01 02:24:04;;;;;;;7.40;4.40;;;;;;;17.63;46.88;97534.81;5017174;28;20581;-71
2023/06/01 02:26:30;;;;;;;5.67;4.43;;;;;;;17.61;46.97;97531.53;5013296;28;20307;-70
2023/06/01 02:28:56;;;;;;;5.63;4.63;;;;;;;17.57;47.22;97532.91;5011377;28;20427;-70
2023/06/01 02:31:21;;;;;;;7.70;4.37;;;;;;;17.60;47.09;97542.28;5011423;28;20439;-70
2023/06/01 02:33:47;;;;;;;4.73;4.10;;;;;;;17.49;47.35;97541.78;5010336;28;20207;-70
2023/06/01 02:36:12;;;;;;;7.73;4.70;;;;;;;17.50;47.28;97542.63;5012909;28;20588;-70
2023/06/01 02:38:38;;;;;;;6.47;4.70;;;;;;;17.53;47.53;97536.94;5019362;28;20188;-70
2023/06/01 02:41:03;;;;;;;7.07;4.63;;;;;;;17.43;47.60;97533.78;5013686;28;20187;-70
2023/06/01 02:43:29;;;;;;;7.97;4.80;;;;;;;17.42;47.51;97540.91;5010448;28;20559;-69
2023/06/01 02:45:55;;;;;;;5.10;4.00;;;;;;;17.40;47.64;97534.13;5010880;28;20180;-70
2023/06/01 02:48:21;;;;;;;5.80;4.17;;;;;;;17.37;47.71;97537.19;5014878;28;20184;-70
2023/06/01 02:50:47;;;;;;;8.60;3.87;;;;;;;17.38;47.64;97538.84;5010574;28;20469;-69
2023/06/01 02:53:13;;;;;;;5.10;4.20;;;;;;;17.32;47.81;97530.63;5010792;28;20443;-70
2023/06/01 02:55:38;;;;;;;11.27;4.40;;;;;;;17.33;47.98;97532.25;5010479;28;20541;-71
2023/06/01 02:58:04;;;;;;;16.33;4.30;;;;;;;17.33;47.78;97534.91;5011991;28;20185;-71
2023/06/01 03:00:30;;;;;;;5.50;4.10;;;;;;;17.17;47.86;97532.47;5020510;28;20180;-71
2023/06/01 03:02:55;;;;;;;4.60;3.53;;;;;;;17.15;48.03;97526.53;5015170;28;20303;-70
2023/06/01 03:05:21;;;;;;;6.90;3.80;;;;;;;17.14;47.93;97535.50;5022923;28;20509;-71
2023/06/01 03:07:47;;;;;;;6.67;4.70;;;;;;;17.09;48.14;97537.91;5010372;28;20216;-72
2023/06/01 03:10:12;;;;;;;5.63;4.13;;;;;;;17.11;47.99;97533.25;5009910;28;20200;-70
2023/06/01 03:12:38;;;;;;;8.23;4.60;;;;;;;17.14;47.97;97538.13;5009852;28;20975;-71
2023/06/01 03:15:04;;;;;;;5.83;4.10;;;;;;;17.11;48.03;97535.88;5027023;28;20211;-70
2023/06/01 03:17:31;;;;;;;9.40;4.27;;;;;;;17.12;48.03;97534.88;5021135;28;20184;-71
2023/06/01 03:19:57;;;;;;;7.83;3.90;;;;;;;17.08;48.01;97538.91;5017460;28;20437;-71
2023/06/01 03:22:22;;;;;;;6.03;4.27;;;;;;;16.99;48.32;97538.19;5014917;28;20464;-71
2023/06/01 03:24:49;;;;;;;6.23;3.97;;;;;;;16.97;48.18;97541.03;5050702;28;20239;-71
2023/06/01 03:27:17;;;;;;;5.03;3.60;;;;;;;16.93;48.45;97545.00;5009787;28;20264;-70
2023/06/01 03:29:43;;;;;;;9.20;4.03;;;;;;;16.81;48.93;97539.38;5010174;28;20427;-70
2023/06/01 03:32:08;;;;;;;5.87;4.10;;;;;;;16.85;49.06;97545.91;5010232;28;20430;-70
2023/06/01 03:34:36;;;;;;;7.30;4.40;;;;;;;16.80;49.12;97552.78;5018090;28;20204;-71
2023/06/01 03:37:03;;;;;;;6.57;4.53;;;;;;;16.81;48.97;97554.41;5010449;28;20274;-70
2023/06/01 03:39:33;;;;;;;5.30;4.37;;;;;;;16.86;48.59;97547.56;5003733;28;20436;-70
2023/06/01 03:41:59;;;;;;;5.00;4.03;;;;;;;16.92;48.91;97551.28;5009156;28;20797;-71
2023/06/01 03:44:25;;;;;;;12.00;4.40;;;;;;;16.86;48.77;97560.00;5010372;28;20446;-70
2023/06/01 03:46:50;;;;;;;9.33;4.57;;;;;;;16.83;48.71;97547.91;5020368;28;20192;-72
2023/06/01 03:49:16;;;;;;;11.37;4.03;;;;;;;16.83;48.91;97550.56;5010557;28;20184;-70
2023/06/01 03:51:41;;;;;;;8.53;4.40;;;;;;;16.85;48.83;97555.69;5015586;28;20188;-72
2023/06/01 03:54:07;;;;;;;8.60;4.07;;;;;;;16.77;49.21;97553.13;5009894;28;20204;-72
2023/06/01 03:56:32;;;;;;;4.90;3.90;;;;;;;16.78;49.21;97550.31;5016545;28;20622;-70
2023/06/01 03:58:58;;;;;;;5.43;3.73;;;;;;;16.79;49.48;97559.06;5009741;28;20283;-70
2023/06/01 04:01:23;;;;;;;5.90;4.30;;;;;;;16.71;49.28;97558.16;5005185;28;20188;-71
2023/06/01 04:03:50;;;;;;;5.57;4.10;;;;;;;16.73;49.31;97557.97;5001391;28;20299;-70
2023/06/01 04:06:17;;;;;;;6.70;4.23;;;;;;;16.73;49.35;97564.09;5007722;28;20665;-70
2023/06/01 04:08:49;;;;;;;7.17;4.30;;;;;;;16.72;49.47;97565.09;5008312;28;20815;-70
2023/06/01 04:11:15;;;;;;;11.47;4.33;;;;;;;16.72;49.62;97565.09;5015168;28;20442;-70
2023/06/01 04:13:41;;;;;;;7.97;4.00;;;;;;;16.76;49.93;97567.38;5012489;28;20494;-71
2023/06/01 04:16:06;;;;;;;6.20;4.07;;;;;;;16.80;50.28;97566.84;5012904;28;20487;-71
2023/06/01 04:18:32;;;;;;;6.53;4.80;;;;;;;16.81;50.13;97565.00;5006170;28;20180;-71
2023/06/01 04:20:57;;;;;;;7.47;4.93;;;;;;;16.73;50.17;97569.41;5018147;28;20188;-70
2023/06/01 04:23:23;;;;;;;8.03;4.97;;;;;;;16.66;50.58;97565.00;5010009;28;20689;-71
2023/06/01 04:25:51;;;;;;;6.80;4.60;;;;;;;16.74;50.67;97571.03;5010216;28;21742;-72
2023/06/01 04:28:17;;;;;;;7.50;4.70;;;;;;;16.84;50.21;97564.63;5006771;28;20200;-70
2023/06/01 04:30:44;;;;;;;9.17;4.33;;;;;;;16.87;49.65;97569.56;5008193;28;20537;-71
2023/06/01 04:33:10;;;;;;;5.87;4.03;;;;;;;16.92;49.78;97574.31;5007717;28;20539;-70
2023/06/01 04:35:36;;;;;;;8.00;4.73;;;;;;;17.03;49.73;97577.31;5008011;28;20533;-71
2023/06/01 04:38:02;;;;;;;7.83;4.77;;;;;;;17.11;49.52;97572.97;5003626;28;20470;-70
2023/06/01 04:40:28;;;;;;;9.93;4.60;;;;;;;17.17;49.54;97569.56;5011410;28;21293;-71
2023/06/01 04:42:56;;;;;;;5.27;4.40;;;;;;;17.24;49.81;97567.81;5016108;28;20196;-70
2023/06/01 04:45:23;;;;;;;11.73;4.80;;;;;;;17.29;50.00;97560.13;5009426;28;20181;-70
2023/06/01 04:47:49;;;;;;;6.80;4.63;;;;;;;17.33;49.81;97564.03;5010112;28;20419;-71
2023/06/01 04:50:16;;;;;;;6.30;4.73;;;;;;;17.39;49.88;97566.97;5009013;28;20519;-71
2023/06/01 04:52:42;;;;;;;11.90;4.53;;;;;;;17.41;50.01;97567.56;5017004;28;20443;-70
2023/06/01 04:55:08;;;;;;;8.33;4.50;;;;;;;17.45;49.93;97567.00;5019321;28;20494;-71
2023/06/01 04:57:35;;;;;;;8.93;5.23;;;;;;;17.50;49.83;97569.94;5008608;28;20884;-71
2023/06/01 05:00:04;;;;;;;12.07;5.13;;;;;;;17.57;49.77;97564.69;5015262;28;20455;-71
2023/06/01 05:02:30;;;;;;;7.30;4.70;;;;;;;17.64;49.73;97575.38;5008591;28;20455;-70
2023/06/01 05:04:55;;;;;;;9.90;4.33;;;;;;;17.70;49.47;97571.97;5007950;28;21067;-71
2023/06/01 05:07:21;;;;;;;14.70;4.80;;;;;;;17.72;49.34;97580.53;5015969;28;20184;-71
2023/06/01 05:09:47;;;;;;;10.03;4.07;;;;;;;17.73;49.12;97574.22;5012809;28;20187;-71
2023/06/01 05:12:12;;;;;;;8.43;4.00;;;;;;;17.76;49.13;97573.84;5010494;28;20652;-71
2023/06/01 05:14:38;;;;;;;6.10;4.20;;;;;;;17.81;49.08;97575.94;5012731;28;20458;-70
2023/06/01 05:17:04;;;;;;;9.37;4.43;;;;;;;17.92;49.04;97579.91;5008197;28;20284;-72
2023/06/01 05:19:29;;;;;;;7.20;4.37;;;;;;;18.06;48.74;97575.56;5008233;28;20180;-70
2023/06/01 05:21:55;;;;;;;6.30;4.00;;;;;;;18.21;48.68;97575.50;5003772;28;20882;-70
2023/06/01 05:24:20;;;;;;;7.30;4.10;;;;;;;18.33;48.31;97573.13;5014554;28;20231;-69
2023/06/01 05:26:46;;;;;;;6.50;4.07;;;;;;;18.45;47.72;97576.09;5007156;28;20202;-71
2023/06/01 05:29:11;;;;;;;7.13;4.37;;;;;;;18.53;47.59;97568.78;5012108;28;20680;-70
2023/06/01 05:31:37;;;;;;;6.60;3.90;;;;;;;18.68;47.77;97567.84;5018796;28;20230;-71
2023/06/01 05:34:02;;;;;;;8.27;4.37;;;;;;;18.80;46.96;97563.63;5010803;28;20204;-71
2023/06/01 05:36:28;;;;;;;5.57;4.00;;;;;;;18.92;46.75;97574.53;5008758;28;20184;-70
2023/06/01 05:38:53;;;;;;;12.50;4.03;;;;;;;19.05;46.58;97568.47;5017433;28;20698;-71
2023/06/01 05:41:18;;;;;;;7.93;4.07;;;;;;;19.18;45.98;97570.38;5016605;28;20202;-71
2023/06/01 05:43:44;;;;;;;6.77;3.97;;;;;;;19.35;46.39;97565.53;5015429;28;20211;-72
2023/06/01 05:46:09;;;;;;;7.23;4.67;;;;;;;19.52;46.18;97560.66;5010567;28;20207;-72
2023/06/01 05:48:35;;;;;;;7.83;3.90;;;;;;;19.67;44.31;97567.63;5015961;28;20267;-72
2023/06/01 05:51:00;;;;;;;5.57;3.70;;;;;;;19.81;42.38;97561.31;5011862;28;20247;-71
2023/06/01 05:53:27;;;;;;;5.23;3.60;;;;;;;19.99;42.27;97563.41;5008875;28;20235;-71
2023/06/01 05:55:53;;;;;;;6.83;3.60;;;;;;;20.17;41.96;97567.28;5018193;28;20216;-72
2023/06/01 05:58:18;;;;;;;11.93;3.33;;;;;;;20.34;41.78;97565.84;5018569;28;20435;-70
2023/06/01 06:00:44;;;;;;;9.00;3.47;;;;;;;20.51;41.56;97560.09;5013897;28;20188;-70
2023/06/01 06:03:09;;;;;;;5.23;3.23;;;;;;;20.65;40.33;97569.72;5011716;28;20754;-73
2023/06/01 06:05:35;;;;;;;8.33;3.70;;;;;;;20.79;40.18;97564.38;5011626;28;20172;-71
2023/06/01 06:08:01;;;;;;;4.70;3.83;;;;;;;20.94;40.13;97572.91;5011323;28;20184;-70
2023/06/01 06:10:26;;;;;;;6.97;3.33;;;;;;;21.05;40.21;97574.13;5014876;28;20562;-70
2023/06/01 06:12:52;;;;;;;6.10;3.80;;;;;;;21.23;40.37;97586.75;5018665;28;20204;-72
2023/06/01 06:15:17;;;;;;;6.53;3.57;;;;;;;21.37;40.57;97579.50;5019951;28;20208;-71
2023/06/01 06:17:42;;;;;;;10.03;4.00;;;;;;;21.55;40.25;97580.66;5014046;28;20235;-71
2023/06/01 06:20:10;;;;;;;8.17;4.33;;;;;;;21.71;39.67;97574.03;5023496;28;20184;-73
2023/06/01 06:22:35;;;;;;;6.93;3.83;;;;;;;21.84;39.54;97576.59;5015081;28;20212;-72
2023/06/01 06:25:01;;;;;;;7.73;4.07;;;;;;;21.99;39.12;97578.16;5015315;28;20470;-71
2023/06/01 06:27:26;;;;;;;6.17;3.63;;;;;;;22.13;38.73;97573.50;5015686;28;20212;-72
2023/06/01 06:29:52;;;;;;;7.53;3.30;;;;;;;22.29;38.46;97572.16;5013370;28;20184;-71
2023/06/01 06:32:19;;;;;;;9.57;3.80;;;;;;;22.43;38.62;97573.69;5011670;28;20186;-69
2023/06/01 06:34:45;;;;;;;5.27;3.60;;;;;;;22.59;38.21;97571.50;5018511;28;20216;-70
2023/06/01 06:37:11;;;;;;;7.57;4.13;;;;;;;22.72;37.81;97573.22;5011512;28;20424;-71
2023/06/01 06:39:37;;;;;;;5.37;3.60;;;;;;;22.84;37.13;97576.78;5011755;28;20716;-71
2023/06/01 06:42:03;;;;;;;7.80;3.87;;;;;;;22.97;36.53;97571.31;5015384;28;20349;-71
2023/06/01 06:44:29;;;;;;;5.37;3.67;;;;;;;23.08;36.01;97575.06;5012533;28;20451;-70
2023/06/01 06:46:55;;;;;;;5.70;4.00;;;;;;;23.21;35.42;97573.28;5013249;28;20429;-70
2023/06/01 06:49:20;;;;;;;8.10;4.03;;;;;;;23.33;34.73;97576.84;5018713;28;20275;-70
2023/06/01 06:51:46;;;;;;;11.50;3.77;;;;;;;23.45;34.85;97574.22;5010874;28;20273;-72
2023/06/01 06:54:12;;;;;;;13.40;3.93;;;;;;;23.56;33.48;97570.78;5011443;28;20859;-70
2023/06/01 06:56:37;;;;;;;7.70;3.60;;;;;;;23.69;33.50;97574.31;5018873;28;20216;-72
2023/06/01 06:59:03;;;;;;;7.97;3.80;;;;;;;23.81;34.07;97574.38;5014576;28;20259;-71
2023/06/01 07:01:28;;;;;;;11.97;4.40;;;;;;;23.96;34.10;97574.75;5010030;28;20595;-71
2023/06/01 07:03:55;;;;;;;12.70;4.20;;;;;;;23.98;33.32;97570.00;5015353;28;20214;-70
2023/06/01 07:06:21;;;;;;;7.40;4.00;;;;;;;24.15;33.83;97578.16;5011158;28;20230;-71
2023/06/01 07:08:46;;;;;;;10.70;4.17;;;;;;;24.28;33.47;97579.81;5010742;28;21276;-70
2023/06/01 07:11:12;;;;;;;3.83;3.30;;;;;;;24.42;33.79;97571.56;5014247;28;20180;-71
2023/06/01 07:13:37;;;;;;;10.77;3.90;;;;;;;24.54;33.86;97575.84;5016904;28;20227;-72
2023/06/01 07:16:05;;;;;;;9.17;4.30;;;;;;;24.64;33.56;97577.94;5012845;28;20232;-73
2023/06/01 07:18:31;;;;;;;5.77;4.07;;;;;;;24.73;32.85;97572.25;5019260;28;20192;-70
2023/06/01 07:21:00;;;;;;;10.90;4.30;;;;;;;24.87;33.11;97579.00;4996651;28;20427;-71
2023/06/01 07:23:26;;;;;;;7.03;3.73;;;;;;;24.98;32.74;97574.66;5015120;28;21191;-70
2023/06/01 07:25:51;;;;;;;12.87;4.00;;;;;;;25.05;32.17;97577.22;5012929;28;20427;-71
2023/06/01 07:28:18;;;;;;;8.53;4.20;;;;;;;25.19;32.53;97573.22;5013730;28;20459;-71
2023/06/01 07:30:43;;;;;;;8.60;3.50;;;;;;;25.26;32.13;97565.84;5024545;28;20283;-72
2023/06/01 07:33:09;;;;;;;8.37;3.50;;;;;;;25.25;31.52;97574.13;5017942;28;21019;-71
2023/06/01 07:35:35;;;;;;;5.87;3.40;;;;;;;25.34;31.62;97571.88;5012623;28;20253;-71
2023/06/01 07:38:03;;;;;;;5.33;3.67;;;;;;;25.28;31.36;97573.63;5018008;28;20188;-72
2023/06/01 07:40:30;;;;;;;7.33;4.10;;;;;;;25.43;31.45;97570.47;5020159;28;20207;-71
2023/06/01 07:42:55;;;;;;;11.40;4.00;;;;;;;25.54;31.18;97576.84;5015895;28;20978;-70
2023/06/01 07:45:21;;;;;;;8.23;4.20;;;;;;;25.69;30.99;97579.81;5012968;28;20502;-70
2023/06/01 07:47:47;;;;;;;12.17;4.63;;;;;;;25.82;31.35;97573.34;5013761;28;20180;-71
2023/06/01 07:50:12;;;;;;;8.03;4.30;;;;;;;25.95;30.84;97568.72;5021672;28;20263;-70
2023/06/01 07:52:38;;;;;;;7.10;3.73;;;;;;;26.05;30.93;97576.91;5004039;28;20179;-71
2023/06/01 07:55:04;;;;;;;8.50;3.60;;;;;;;26.13;30.56;97571.16;5019101;28;20287;-71
2023/06/01 07:57:30;;;;;;;7.40;4.07;;;;;;;26.16;30.37;97570.69;5015988;28;20200;-72
2023/06/01 07:59:56;;;;;;;6.47;3.77;;;;;;;26.32;30.56;97570.94;5020230;28;20230;-72
2023/06/01 08:02:21;;;;;;;7.70;4.07;;;;;;;26.44;30.42;97571.66;5017440;28;20806;-72
2023/06/01 08:04:47;;;;;;;7.43;3.83;;;;;;;26.52;31.06;97557.78;5010597;28;20435;-72
2023/06/01 08:07:16;;;;;;;9.63;4.13;;;;;;;26.61;30.59;97566.25;5014510;28;20181;-71
2023/06/01 08:09:42;;;;;;;8.43;5.00;;;;;;;26.73;30.53;97566.13;5017463;28;20260;-70
2023/06/01 08:12:08;;;;;;;7.20;4.17;;;;;;;26.79;30.20;97567.03;5017406;28;20423;-71
2023/06/01 08:14:33;;;;;;;17.93;3.90;;;;;;;26.92;29.88;97566.66;5013610;28;20474;-71
2023/06/01 08:17:01;;;;;;;17.70;4.13;;;;;;;27.05;29.83;97568.19;5011412;28;20176;-71
2023/06/01 08:19:27;;;;;;;7.13;4.03;;;;;;;27.17;29.83;97561.84;5022471;28;20710;-71
2023/06/01 08:21:53;;;;;;;4.47;3.97;;;;;;;27.31;29.51;97560.41;5021133;28;20423;-71
2023/06/01 08:24:22;;;;;;;5.53;3.80;;;;;;;27.42;29.04;97566.69;5019707;28;20228;-70
2023/06/01 08:26:48;;;;;;;8.87;4.30;;;;;;;27.54;28.96;97561.19;5012041;28;20188;-70
2023/06/01 08:29:13;;;;;;;6.47;3.93;;;;;;;27.68;28.80;97559.72;5011773;28;20416;-70
2023/06/01 08:31:39;;;;;;;11.33;3.97;;;;;;;27.86;28.91;97550.47;5021799;28;20610;-71
2023/06/01 08:34:05;;;;;;;10.50;4.20;;;;;;;27.95;29.14;97550.81;5020105;28;20234;-71
2023/06/01 08:36:31;;;;;;;12.07;4.00;;;;;;;28.11;29.09;97556.31;5010915;28;20173;-72
2023/06/01 08:38:56;;;;;;;8.80;4.30;;;;;;;28.17;28.38;97548.03;5019682;28;20947;-71
2023/06/01 08:41:40;;;;;;;5.40;4.20;;;;;;;28.13;27.80;97543.41;5035235;28;20251;-72
2023/06/01 08:44:08;;;;;;;10.70;4.70;;;;;;;28.24;28.48;97550.50;5014909;28;20588;-71
2023/06/01 08:46:36;;;;;;;8.27;4.80;;;;;;;28.40;27.80;97547.91;5011217;28;20463;-72
2023/06/01 08:49:02;;;;;;;8.23;4.33;;;;;;;28.48;27.75;97542.06;5013381;28;20420;-73
2023/06/01 08:51:28;;;;;;;8.67;4.10;;;;;;;28.58;27.73;97542.09;4996331;28;20793;-71
2023/06/01 08:53:57;;;;;;;11.23;4.57;;;;;;;28.70;27.38;97549.16;4992917;28;21126;-72
2023/06/01 08:56:23;;;;;;;12.17;4.60;;;;;;;28.75;27.66;97539.25;5011127;28;20486;-71
2023/06/01 08:58:50;;;;;;;8.43;4.03;;;;;;;28.88;27.63;97542.53;5023210;28;20430;-72
2023/06/01 09:01:21;;;;;;;9.03;4.30;;;;;;;28.96;27.17;97545.56;5013421;28;20217;-71
2023/06/01 09:03:47;;;;;;;8.33;4.57;;;;;;;29.08;27.27;97539.13;5008731;28;20439;-70
2023/06/01 09:06:13;;;;;;;9.80;4.30;;;;;;;29.19;26.92;97543.47;5014955;28;20500;-71
2023/06/01 09:08:38;;;;;;;6.80;4.03;;;;;;;29.30;27.07;97533.50;5008735;28;20852;-71
2023/06/01 09:11:03;;;;;;;10.37;4.70;;;;;;;29.38;27.01;97541.13;5013499;28;20266;-71
2023/06/01 09:13:37;;;;;;;13.93;4.63;;;;;;;29.49;26.39;97541.94;5010798;28;20299;-71
2023/06/01 09:16:02;;;;;;;9.33;4.30;;;;;;;29.64;26.67;97543.84;5011594;28;20681;-71
2023/06/01 09:18:28;;;;;;;7.80;4.33;;;;;;;29.83;26.83;97541.44;5017022;28;20426;-70
2023/06/01 09:20:56;;;;;;;8.07;4.60;;;;;;;29.87;26.09;97544.41;5011941;28;20189;-71
2023/06/01 09:23:28;;;;;;;9.30;4.80;;;;;;;30.02;25.94;97549.00;5002204;28;20550;-71
2023/06/01 09:26:07;;;;;;;14.10;4.50;;;;;;;30.16;26.42;97544.69;5015758;28;20422;-72
2023/06/01 09:29:00;;;;;;;15.50;4.43;;;;;;;30.28;26.09;97540.88;5012013;28;20517;-71
2023/06/01 09:31:42;;;;;;;6.50;4.30;;;;;;;30.37;26.02;97544.66;5006521;28;20905;-71
2023/06/01 09:34:09;;;;;;;6.93;4.80;;;;;;;30.33;25.72;97535.50;5008617;28;20538;-71
2023/06/01 09:36:35;;;;;;;6.67;4.30;;;;;;;30.43;25.67;97540.88;5016225;28;20423;-72
2023/06/01 09:39:09;;;;;;;6.10;4.40;;;;;;;30.58;25.32;97536.53;5016317;28;20427;-71
2023/06/01 09:41:44;;;;;;;8.63;4.47;;;;;;;30.74;25.17;97532.72;5018610;28;20441;-71
2023/06/01 09:44:09;;;;;;;7.77;4.67;;;;;;;30.70;24.72;97542.44;5020560;28;21224;-69
2023/06/01 09:46:47;;;;;;;7.83;4.63;;;;;;;30.86;24.82;97531.59;5010274;28;20419;-72
2023/06/01 09:49:19;;;;;;;9.97;4.60;;;;;;;31.03;24.57;97533.94;5009479;28;20696;-70
2023/06/01 09:51:45;;;;;;;10.97;4.50;;;;;;;31.15;24.54;97520.09;5012092;28;20439;-70
2023/06/01 09:54:10;;;;;;;12.33;4.43;;;;;;;31.29;24.54;97523.00;5010150;28;20451;-71
2023/06/01 09:56:43;;;;;;;5.63;4.33;;;;;;;31.34;24.12;97523.78;5010466;28;20209;-71
2023/06/01 09:59:08;;;;;;;9.83;4.80;;;;;;;31.35;24.06;97520.00;5010383;28;20187;-72
2023/06/01 10:01:34;;;;;;;14.33;4.77;;;;;;;31.35;24.15;97517.28;5016606;28;20416;-70
2023/06/01 10:04:00;;;;;;;9.03;4.53;;;;;;;31.40;24.01;97511.81;5007639;28;20196;-72
2023/06/01 10:06:28;;;;;;;7.80;4.50;;;;;;;31.46;23.85;97515.28;5016958;28;20740;-72
2023/06/01 10:08:55;;;;;;;8.43;4.80;;;;;;;31.65;24.37;97507.31;5015737;28;20422;-69
2023/06/01 10:11:20;;;;;;;5.80;4.40;;;;;;;31.66;23.72;97511.63;5021772;28;20426;-72
2023/06/01 10:13:46;;;;;;;7.60;5.13;;;;;;;31.65;23.51;97512.72;5025237;28;20446;-71
2023/06/01 10:16:12;;;;;;;5.37;4.00;;;;;;;31.78;24.09;97515.91;5020797;28;20555;-70
2023/06/01 10:18:38;;;;;;;6.37;3.97;;;;;;;31.79;23.64;97512.94;5017359;28;20183;-69
2023/06/01 10:21:06;;;;;;;7.70;4.13;;;;;;;31.83;23.54;97505.03;5017040;28;20448;-70
2023/06/01 10:23:31;;;;;;;8.47;5.20;;;;;;;31.99;23.55;97500.28;5010193;28;20446;-71
2023/06/01 10:25:58;;;;;;;6.20;4.90;;;;;;;32.07;23.86;97504.28;5022460;28;20418;-72
2023/06/01 10:28:25;;;;;;;5.40;4.27;;;;;;;32.07;23.76;97504.28;5015215;28;20183;-73
2023/06/01 10:31:36;;;;;;;7.93;5.13;;;;;;;32.17;22.86;97499.59;5009207;28;20960;-71
2023/06/01 10:34:01;;;;;;;11.37;4.87;;;;;;;32.23;22.21;97505.75;5005647;28;20454;-71
2023/06/01 10:36:52;;;;;;;5.90;4.63;;;;;;;32.27;22.63;97504.09;5015213;28;20462;-70
2023/06/01 10:39:28;;;;;;;5.37;4.40;;;;;;;31.99;21.82;97500.28;5019364;28;20301;-70
2023/06/01 10:42:17;;;;;;;8.33;4.47;;;;;;;32.16;22.36;97494.44;5019186;28;20462;-71
2023/06/01 10:44:43;;;;;;;6.70;4.60;;;;;;;32.31;21.92;97482.66;5010938;28;20513;-71
2023/06/01 10:47:11;;;;;;;9.10;5.20;;;;;;;32.53;21.94;97484.03;5014048;28;20418;-70
2023/06/01 10:49:49;;;;;;;8.23;4.33;;;;;;;32.39;20.75;97489.34;5024310;28;20192;-71
2023/06/01 10:52:26;;;;;;;7.13;4.07;;;;;;;32.47;20.20;97486.81;5011740;28;20526;-71
2023/06/01 10:54:56;;;;;;;4.40;4.00;;;;;;;32.55;20.58;97477.22;5015206;28;20467;-69
2023/06/01 10:57:25;;;;;;;5.47;4.27;;;;;;;32.69;20.81;97476.53;5013679;28;20439;-70
2023/06/01 11:00:26;;;;;;;12.53;4.20;;;;;;;32.45;21.03;97480.84;5011169;28;20473;-71
2023/06/01 11:02:59;;;;;;;7.83;4.40;;;;;;;32.58;21.23;97476.66;5017020;28;20431;-71
2023/06/01 11:05:46;;;;;;;8.80;4.33;;;;;;;32.47;20.66;97472.44;5010797;28;20446;-71
2023/06/01 11:08:21;;;;;;;7.80;3.83;;;;;;;32.47;20.69;97469.75;5013650;28;20427;-69
2023/06/01 11:10:53;;;;;;;7.63;4.20;;;;;;;32.71;21.33;97463.50;5018576;28;20509;-71
2023/06/01 11:13:31;;;;;;;6.70;4.00;;;;;;;32.88;21.45;97463.84;5023110;28;20447;-71
2023/06/01 11:16:06;;;;;;;6.30;4.07;;;;;;;33.14;21.37;97465.38;5025404;28;20474;-70
2023/06/01 11:18:46;;;;;;;6.93;4.60;;;;;;;33.14;20.33;97474.34;5015093;28;20985;-71
2023/06/01 11:21:17;;;;;;;5.23;4.20;;;;;;;33.16;20.26;97472.13;5010117;28;20461;-69
2023/06/01 11:23:45;;;;;;;7.50;4.00;;;;;;;33.16;20.38;97472.13;5017458;28;20485;-71
2023/06/01 11:26:15;;;;;;;6.13;3.83;;;;;;;33.13;19.73;97470.00;5017862;28;20454;-70
2023/06/01 11:28:41;;;;;;;5.57;4.37;;;;;;;33.14;19.96;97471.63;5015014;28;20832;-70
2023/06/01 11:31:15;;;;;;;7.03;3.93;;;;;;;33.20;19.78;97470.44;5011669;28;20446;-71
2023/06/01 11:33:49;;;;;;;6.73;4.17;;;;;;;33.32;20.02;97459.13;5018041;28;20483;-70